Time;durP1;ratioP1;P1;durP2;ratioP2;P2;SDS_P1;SDS_P2;PMS_P1;PMS_P2;Temp;Humidity;BMP_temperature;BMP_pressure;BME280_temperature;BME280_humidity;BME280_pressure;Samples;Min_cycle;Max_cycle;Signal;HPM_P1;HPM_P2
2021/01/12 00:02:25;;;;;;;32.63;23.27;;;;;;;;;;5081705;28;20528;-72
2021/01/12 00:04:51;;;;;;;38.43;24.47;;;;;;;;;;5064642;28;20181;-72
2021/01/12 00:07:22;;;;;;;38.33;24.43;;;;;;;;;;5071259;28;20204;-71
2021/01/12 00:09:48;;;;;;;33.30;22.63;;;;;;;;;;5080489;28;20202;-74
2021/01/12 00:12:13;;;;;;;36.37;23.87;;;;;;;;;;5088911;28;20184;-74
2021/01/12 00:14:39;;;;;;;32.47;22.80;;;;;;;;;;5081855;28;20199;-74
2021/01/12 00:17:07;;;;;;;32.13;22.23;;;;;;;;;;5088700;28;20651;-73
2021/01/12 00:19:34;;;;;;;32.03;22.13;;;;;;;;;;5078834;28;20591;-73
2021/01/12 00:22:01;;;;;;;35.20;24.10;;;;;;;;;;5083027;28;20258;-73
2021/01/12 00:24:27;;;;;;;33.23;24.37;;;;;;;;;;5081238;28;20184;-74
2021/01/12 00:26:53;;;;;;;32.80;23.17;;;;;;;;;;5084954;28;20191;-74
2021/01/12 00:29:18;;;;;;;30.00;21.57;;;;;;;;;;5077484;28;20267;-73
2021/01/12 00:31:44;;;;;;;35.60;21.97;;;;;;;;;;5083421;28;20187;-72
2021/01/12 00:34:11;;;;;;;30.53;20.87;;;;;;;;;;5081174;28;20184;-72
2021/01/12 00:36:40;;;;;;;34.60;21.83;;;;;;;;;;5085236;28;20200;-73
2021/01/12 00:39:06;;;;;;;31.77;22.10;;;;;;;;;;5089371;28;20224;-73
2021/01/12 00:41:32;;;;;;;29.90;20.50;;;;;;;;;;5078453;28;20210;-71
2021/01/12 00:43:57;;;;;;;28.27;20.73;;;;;;;;;;5088460;28;20277;-73
2021/01/12 00:46:22;;;;;;;33.73;21.17;;;;;;;;;;5077778;28;21050;-73
2021/01/12 00:48:48;;;;;;;27.83;19.60;;;;;;;;;;5089890;28;20247;-74
2021/01/12 00:51:13;;;;;;;30.53;19.77;;;;;;;;;;5077620;28;20188;-72
2021/01/12 00:53:39;;;;;;;28.67;19.90;;;;;;;;;;5086251;28;20214;-73
2021/01/12 00:56:14;;;;;;;30.17;18.73;;;;;;;;;;5077929;28;20176;-74
2021/01/12 00:58:40;;;;;;;28.40;18.70;;;;;;;;;;5089949;28;20179;-73
2021/01/12 01:01:05;;;;;;;29.70;19.13;;;;;;;;;;5060704;28;20214;-73
2021/01/12 01:03:31;;;;;;;29.27;19.40;;;;;;;;;;5067598;28;20176;-72
2021/01/12 01:05:56;;;;;;;25.57;17.60;;;;;;;;;;5072825;28;20674;-74
2021/01/12 01:08:21;;;;;;;27.37;18.53;;;;;;;;;;5088985;28;20227;-74
2021/01/12 01:10:47;;;;;;;30.13;17.83;;;;;;;;;;5085251;28;20188;-73
2021/01/12 01:13:12;;;;;;;26.50;18.37;;;;;;;;;;5080591;28;20210;-73
2021/01/12 01:15:37;;;;;;;29.00;18.37;;;;;;;;;;5087014;28;20188;-72
2021/01/12 01:18:03;;;;;;;25.50;17.43;;;;;;;;;;5078922;28;20241;-72
2021/01/12 01:20:28;;;;;;;24.03;17.10;;;;;;;;;;5087376;28;20222;-72
2021/01/12 01:22:53;;;;;;;23.90;17.07;;;;;;;;;;5080993;28;20192;-72
2021/01/12 01:25:19;;;;;;;22.40;16.07;;;;;;;;;;5085366;28;20180;-73
2021/01/12 01:27:44;;;;;;;25.33;16.07;;;;;;;;;;5059544;28;20195;-72
2021/01/12 01:30:10;;;;;;;25.37;15.00;;;;;;;;;;5068022;28;20250;-73
2021/01/12 01:32:35;;;;;;;19.90;14.30;;;;;;;;;;5055877;28;20201;-72
2021/01/12 01:35:00;;;;;;;20.50;14.80;;;;;;;;;;5084993;28;20192;-74
2021/01/12 01:37:26;;;;;;;21.47;14.07;;;;;;;;;;5046601;28;20255;-73
2021/01/12 01:39:51;;;;;;;23.57;14.40;;;;;;;;;;5037207;28;20212;-71
2021/01/12 01:42:16;;;;;;;24.73;13.93;;;;;;;;;;5054380;28;20188;-74
2021/01/12 01:44:42;;;;;;;19.07;13.30;;;;;;;;;;5054426;28;20192;-73
2021/01/12 01:47:07;;;;;;;18.23;12.63;;;;;;;;;;5066631;28;20180;-72
2021/01/12 01:49:32;;;;;;;16.87;12.27;;;;;;;;;;5058221;28;20177;-73
2021/01/12 01:51:58;;;;;;;19.03;11.93;;;;;;;;;;5064502;28;20185;-73
2021/01/12 01:54:25;;;;;;;15.10;10.93;;;;;;;;;;5052572;28;20551;-72
2021/01/12 01:56:50;;;;;;;13.50;9.80;;;;;;;;;;5063281;28;20636;-72
2021/01/12 01:59:16;;;;;;;13.43;9.07;;;;;;;;;;5056317;28;20237;-72
2021/01/12 02:01:41;;;;;;;15.43;9.47;;;;;;;;;;5072743;28;20248;-73
2021/01/12 02:04:45;;;;;;;14.07;8.60;;;;;;;;;;5053213;28;20183;-72
2021/01/12 02:07:13;;;;;;;12.87;8.80;;;;;;;;;;5057392;28;20623;-73
2021/01/12 02:09:47;;;;;;;12.23;8.40;;;;;;;;;;5056645;28;20184;-73
2021/01/12 02:12:21;;;;;;;10.30;7.90;;;;;;;;;;5068489;28;20208;-73
2021/01/12 02:14:48;;;;;;;11.03;7.73;;;;;;;;;;5060003;28;20187;-73
2021/01/12 02:17:15;;;;;;;9.53;7.17;;;;;;;;;;5064806;28;20185;-74
2021/01/12 02:19:41;;;;;;;9.57;7.07;;;;;;;;;;5058088;28;20212;-73
2021/01/12 02:22:07;;;;;;;10.60;7.40;;;;;;;;;;5069340;28;20227;-73
2021/01/12 02:24:36;;;;;;;8.83;7.10;;;;;;;;;;5050877;28;20212;-74
2021/01/12 02:27:05;;;;;;;8.33;6.40;;;;;;;;;;5060984;28;20189;-73
2021/01/12 02:29:30;;;;;;;10.37;6.97;;;;;;;;;;5061660;28;20183;-72
2021/01/12 02:31:56;;;;;;;10.30;7.17;;;;;;;;;;5055848;28;20197;-72
2021/01/12 02:34:23;;;;;;;8.30;6.43;;;;;;;;;;5065050;28;20836;-72
2021/01/12 02:36:49;;;;;;;10.87;6.90;;;;;;;;;;5058623;28;20561;-73
2021/01/12 02:39:15;;;;;;;9.77;6.90;;;;;;;;;;5087776;28;20647;-73
2021/01/12 02:41:41;;;;;;;8.80;6.63;;;;;;;;;;5060773;28;20215;-73
2021/01/12 02:44:18;;;;;;;12.23;7.17;;;;;;;;;;5069124;28;20180;-73
2021/01/12 02:46:43;;;;;;;8.37;6.47;;;;;;;;;;5077168;28;20191;-73
2021/01/12 02:49:08;;;;;;;7.63;6.37;;;;;;;;;;5088358;28;20184;-74
2021/01/12 02:51:37;;;;;;;8.73;7.07;;;;;;;;;;5059694;28;20674;-73
2021/01/12 02:54:02;;;;;;;8.80;6.60;;;;;;;;;;5087653;28;20180;-73
2021/01/12 02:56:28;;;;;;;9.43;6.43;;;;;;;;;;5058304;28;20176;-73
2021/01/12 02:58:53;;;;;;;8.80;6.63;;;;;;;;;;5087857;28;20184;-73
2021/01/12 03:01:19;;;;;;;9.10;6.77;;;;;;;;;;5070188;28;20204;-74
2021/01/12 03:03:45;;;;;;;8.50;6.40;;;;;;;;;;5077070;28;20703;-72
2021/01/12 03:06:10;;;;;;;8.53;7.03;;;;;;;;;;5087217;28;20206;-72
2021/01/12 03:08:36;;;;;;;8.47;6.03;;;;;;;;;;5075956;28;20231;-73
2021/01/12 03:11:01;;;;;;;9.03;7.10;;;;;;;;;;5088339;28;20263;-73
2021/01/12 03:13:26;;;;;;;9.77;7.03;;;;;;;;;;5076131;28;20188;-72
2021/01/12 03:15:51;;;;;;;10.37;7.27;;;;;;;;;;5080217;28;22199;-72
2021/01/12 03:18:17;;;;;;;11.50;6.90;;;;;;;;;;5079027;28;20215;-73
2021/01/12 03:20:42;;;;;;;9.87;6.93;;;;;;;;;;5083752;28;20212;-74
2021/01/12 03:23:07;;;;;;;8.40;6.63;;;;;;;;;;5076778;28;20550;-72
2021/01/12 03:25:33;;;;;;;9.67;6.47;;;;;;;;;;5083592;28;20647;-74
2021/01/12 03:27:58;;;;;;;9.10;6.30;;;;;;;;;;5078934;28;20405;-73
2021/01/12 03:30:24;;;;;;;8.60;6.60;;;;;;;;;;5090408;28;20647;-74
2021/01/12 03:32:51;;;;;;;10.07;7.63;;;;;;;;;;5075002;28;20171;-73
2021/01/12 03:35:17;;;;;;;11.07;7.10;;;;;;;;;;5060291;28;20176;-74
2021/01/12 03:37:42;;;;;;;10.40;6.43;;;;;;;;;;5088849;28;20227;-73
2021/01/12 03:40:08;;;;;;;8.67;6.40;;;;;;;;;;5082259;28;20192;-73
2021/01/12 03:42:34;;;;;;;8.33;6.40;;;;;;;;;;5089460;28;20176;-74
2021/01/12 03:44:59;;;;;;;10.70;7.20;;;;;;;;;;5077893;28;20184;-72
2021/01/12 03:47:25;;;;;;;9.23;6.73;;;;;;;;;;5091347;28;20259;-72
2021/01/12 03:49:51;;;;;;;10.60;7.00;;;;;;;;;;5061801;28;20348;-73
2021/01/12 03:52:16;;;;;;;9.20;6.63;;;;;;;;;;5089168;28;20172;-73
2021/01/12 03:54:41;;;;;;;8.90;7.00;;;;;;;;;;5078054;28;20194;-73
2021/01/12 03:57:07;;;;;;;10.40;7.80;;;;;;;;;;5092039;28;20190;-74
2021/01/12 03:59:32;;;;;;;10.17;7.00;;;;;;;;;;5078519;28;20232;-73
2021/01/12 04:01:57;;;;;;;11.30;7.27;;;;;;;;;;5069551;28;20199;-74
2021/01/12 04:04:23;;;;;;;10.20;7.03;;;;;;;;;;5086833;28;20544;-74
2021/01/12 04:06:48;;;;;;;9.57;7.00;;;;;;;;;;5078631;28;20730;-73
2021/01/12 04:09:13;;;;;;;11.90;7.87;;;;;;;;;;5085770;28;20192;-73
2021/01/12 04:11:38;;;;;;;10.10;7.53;;;;;;;;;;5078704;28;20265;-73
2021/01/12 04:14:06;;;;;;;10.60;7.27;;;;;;;;;;5085319;28;20272;-73
2021/01/12 04:16:32;;;;;;;9.63;6.97;;;;;;;;;;5080412;28;20176;-74
2021/01/12 04:18:57;;;;;;;12.53;7.50;;;;;;;;;;5086082;28;20199;-73
2021/01/12 04:21:23;;;;;;;11.30;7.40;;;;;;;;;;5082108;28;20212;-73
2021/01/12 04:23:48;;;;;;;8.93;6.83;;;;;;;;;;5088347;28;20192;-73
2021/01/12 04:26:13;;;;;;;11.20;7.17;;;;;;;;;;5080816;28;20211;-73
2021/01/12 04:28:38;;;;;;;9.37;7.30;;;;;;;;;;5067541;28;20179;-73
2021/01/12 04:31:04;;;;;;;8.67;6.77;;;;;;;;;;5071730;28;20183;-74
2021/01/12 04:33:29;;;;;;;11.20;7.80;;;;;;;;;;5081976;28;20188;-73
2021/01/12 04:35:55;;;;;;;10.60;7.27;;;;;;;;;;5063039;28;20237;-73
2021/01/12 04:38:20;;;;;;;11.60;7.57;;;;;;;;;;5059094;28;20226;-74
2021/01/12 04:40:46;;;;;;;9.77;7.43;;;;;;;;;;5086383;28;20207;-73
2021/01/12 04:43:12;;;;;;;12.27;8.10;;;;;;;;;;5076951;28;20267;-73
2021/01/12 04:45:38;;;;;;;9.60;7.13;;;;;;;;;;5089210;28;20180;-73
2021/01/12 04:48:04;;;;;;;11.37;7.43;;;;;;;;;;5078746;28;20202;-73
2021/01/12 04:50:30;;;;;;;10.00;7.10;;;;;;;;;;5088373;28;20164;-73
2021/01/12 04:52:55;;;;;;;9.63;7.00;;;;;;;;;;5077853;28;20543;-73
2021/01/12 04:55:21;;;;;;;10.57;7.17;;;;;;;;;;5087879;28;20180;-73
2021/01/12 04:57:47;;;;;;;10.13;7.27;;;;;;;;;;5078236;28;20571;-73
2021/01/12 05:00:22;;;;;;;12.03;7.13;;;;;;;;;;5087097;28;20200;-73
2021/01/12 05:03:07;;;;;;;11.63;7.20;;;;;;;;;;5079486;28;20175;-73
2021/01/12 05:05:35;;;;;;;13.13;6.93;;;;;;;;;;5068403;28;20202;-74
2021/01/12 05:08:05;;;;;;;9.63;7.37;;;;;;;;;;5077752;28;20192;-72
2021/01/12 05:10:34;;;;;;;10.10;6.80;;;;;;;;;;5086818;28;20176;-72
2021/01/12 05:13:00;;;;;;;9.73;6.60;;;;;;;;;;5086491;28;20180;-72
2021/01/12 05:15:28;;;;;;;11.17;7.23;;;;;;;;;;5079183;28;20678;-73
2021/01/12 05:17:57;;;;;;;13.53;6.40;;;;;;;;;;5086142;28;20184;-74
2021/01/12 05:20:27;;;;;;;11.30;5.97;;;;;;;;;;5078461;28;20218;-74
2021/01/12 05:23:06;;;;;;;10.53;5.37;;;;;;;;;;5069092;28;20642;-73
2021/01/12 05:25:36;;;;;;;10.63;5.30;;;;;;;;;;5077359;28;20240;-73
2021/01/12 05:28:03;;;;;;;8.63;4.90;;;;;;;;;;5070511;28;20188;-74
2021/01/12 05:30:29;;;;;;;9.37;5.33;;;;;;;;;;5077600;28;20172;-74
2021/01/12 05:32:56;;;;;;;8.30;4.97;;;;;;;;;;5086071;28;20228;-74
2021/01/12 05:35:25;;;;;;;6.87;4.73;;;;;;;;;;5068386;28;20180;-74
2021/01/12 05:37:54;;;;;;;9.63;4.13;;;;;;;;;;5087391;28;20219;-74
2021/01/12 05:40:23;;;;;;;7.50;3.60;;;;;;;;;;5060899;28;20256;-73
2021/01/12 05:42:49;;;;;;;9.30;4.30;;;;;;;;;;5068307;28;20554;-74
2021/01/12 05:45:14;;;;;;;8.30;3.90;;;;;;;;;;5079328;28;20191;-73
2021/01/12 05:47:40;;;;;;;10.27;4.00;;;;;;;;;;5085819;28;20203;-74
2021/01/12 05:50:15;;;;;;;11.40;4.37;;;;;;;;;;5078843;28;20175;-73
2021/01/12 05:52:57;;;;;;;7.20;3.77;;;;;;;;;;5086273;28;20635;-73
2021/01/12 05:55:24;;;;;;;5.80;3.80;;;;;;;;;;5077293;28;20252;-74
2021/01/12 05:57:53;;;;;;;8.40;3.50;;;;;;;;;;5069943;28;20527;-73
2021/01/12 06:00:21;;;;;;;7.60;4.03;;;;;;;;;;5083685;28;20562;-74
2021/01/12 06:02:47;;;;;;;8.43;3.70;;;;;;;;;;5076820;28;20199;-72
2021/01/12 06:05:12;;;;;;;6.77;2.93;;;;;;;;;;5068617;28;20608;-71
2021/01/12 06:07:38;;;;;;;8.97;3.30;;;;;;;;;;5078018;28;20365;-71
2021/01/12 06:10:09;;;;;;;11.50;3.00;;;;;;;;;;5085454;28;20531;-73
2021/01/12 06:12:35;;;;;;;5.17;3.13;;;;;;;;;;5059982;28;20183;-72
2021/01/12 06:15:03;;;;;;;6.40;3.10;;;;;;;;;;5082848;28;20187;-72
2021/01/12 06:17:35;;;;;;;7.60;2.47;;;;;;;;;;5076138;28;20634;-72
2021/01/12 06:20:04;;;;;;;4.93;2.37;;;;;;;;;;4374918;28;10000727;-72
2021/01/12 06:22:36;;;;;;;4.93;2.07;;;;;;;;;;5075366;28;20188;-71
2021/01/12 06:25:06;;;;;;;4.33;2.50;;;;;;;;;;5080528;28;20598;-72
2021/01/12 06:27:33;;;;;;;4.87;2.40;;;;;;;;;;5054861;28;20187;-72
2021/01/12 06:30:02;;;;;;;7.17;3.07;;;;;;;;;;5080247;28;20187;-72
2021/01/12 06:32:29;;;;;;;8.23;2.83;;;;;;;;;;5073837;28;20196;-72
2021/01/12 06:35:00;;;;;;;6.20;2.90;;;;;;;;;;5080825;28;20194;-71
2021/01/12 06:37:26;;;;;;;9.00;3.27;;;;;;;;;;5071556;28;20239;-72
2021/01/12 06:39:56;;;;;;;8.63;3.47;;;;;;;;;;5083863;28;20278;-71
2021/01/12 06:42:29;;;;;;;5.20;3.23;;;;;;;;;;5081067;28;20198;-71
2021/01/12 06:44:56;;;;;;;8.20;4.00;;;;;;;;;;5075090;28;20188;-71
2021/01/12 06:47:24;;;;;;;6.13;3.43;;;;;;;;;;5082425;28;20563;-71
2021/01/12 06:50:00;;;;;;;7.47;3.83;;;;;;;;;;5065579;28;20234;-72
2021/01/12 06:52:26;;;;;;;7.23;3.60;;;;;;;;;;5080419;28;20565;-72
2021/01/12 06:54:51;;;;;;;8.40;4.73;;;;;;;;;;5073500;28;20567;-71
2021/01/12 06:57:23;;;;;;;9.07;4.40;;;;;;;;;;5083083;28;20203;-71
2021/01/12 06:59:54;;;;;;;10.53;4.47;;;;;;;;;;5056013;28;20552;-72
2021/01/12 07:02:30;;;;;;;9.67;5.20;;;;;;;;;;5084553;28;20188;-72
2021/01/12 07:05:14;;;;;;;14.13;4.53;;;;;;;;;;5080167;28;20183;-72
2021/01/12 07:07:45;;;;;;;9.80;5.13;;;;;;;;;;5087516;28;20187;-72
2021/01/12 07:10:16;;;;;;;12.33;5.20;;;;;;;;;;5080707;28;20324;-72
2021/01/12 07:12:43;;;;;;;8.03;4.97;;;;;;;;;;5063586;28;20416;-72
2021/01/12 07:15:22;;;;;;;15.10;4.97;;;;;;;;;;5080696;28;20192;-72
2021/01/12 07:17:50;;;;;;;11.33;5.00;;;;;;;;;;5062691;28;20651;-72
2021/01/12 07:20:16;;;;;;;11.23;4.50;;;;;;;;;;5081048;28;20212;-72
2021/01/12 07:22:51;;;;;;;9.83;4.53;;;;;;;;;;4717722;28;10000117;-72
2021/01/12 07:25:20;;;;;;;10.53;4.30;;;;;;;;;;5074588;28;20192;-72
2021/01/12 07:28:00;;;;;;;6.60;4.30;;;;;;;;;;5079404;28;20303;-72
2021/01/12 07:30:27;;;;;;;12.00;4.50;;;;;;;;;;5073899;28;20240;-72
2021/01/12 07:32:57;;;;;;;10.30;4.47;;;;;;;;;;5084085;28;20208;-71
2021/01/12 07:35:24;;;;;;;9.23;4.63;;;;;;;;;;5070200;28;20183;-71
2021/01/12 07:37:49;;;;;;;10.00;4.73;;;;;;;;;;5084251;28;21295;-71
2021/01/12 07:40:15;;;;;;;12.10;5.20;;;;;;;;;;5068181;28;21193;-71
2021/01/12 07:42:47;;;;;;;9.90;5.30;;;;;;;;;;5072731;28;20190;-71
2021/01/12 07:45:15;;;;;;;14.07;5.60;;;;;;;;;;5085709;28;20241;-71
2021/01/12 07:47:40;;;;;;;13.60;5.50;;;;;;;;;;5057333;28;20770;-71
2021/01/12 07:50:07;;;;;;;13.20;6.03;;;;;;;;;;5084968;28;20180;-71
2021/01/12 07:52:32;;;;;;;9.23;5.60;;;;;;;;;;5071245;28;20181;-71
2021/01/12 07:54:58;;;;;;;14.10;6.03;;;;;;;;;;5087900;28;20184;-71
2021/01/12 07:57:24;;;;;;;11.73;6.07;;;;;;;;;;5078087;28;20267;-71
2021/01/12 07:59:50;;;;;;;11.73;5.70;;;;;;;;;;5085892;28;20276;-71
2021/01/12 08:02:16;;;;;;;13.87;6.50;;;;;;;;;;5075513;28;20271;-71
2021/01/12 08:04:42;;;;;;;12.57;6.43;;;;;;;;;;5087466;28;20280;-71
2021/01/12 08:07:07;;;;;;;20.93;6.77;;;;;;;;;;5059118;28;20229;-70
2021/01/12 08:09:33;;;;;;;11.17;6.73;;;;;;;;;;5087934;28;20172;-71
2021/01/12 08:12:05;;;;;;;12.57;6.60;;;;;;;;;;5077990;28;20617;-71
2021/01/12 08:14:30;;;;;;;10.47;3.57;;;;;;;;;;5085450;28;20191;-71
2021/01/12 08:16:56;;;;;;;6.57;2.27;;;;;;;;;;5085610;28;20192;-71
2021/01/12 08:19:25;;;;;;;6.40;1.90;;;;;;;;;;5078622;28;20667;-71
2021/01/12 08:21:52;;;;;;;4.77;1.33;;;;;;;;;;5085997;28;20199;-71
2021/01/12 08:24:25;;;;;;;2.47;0.87;;;;;;;;;;5079906;28;20826;-70
2021/01/12 08:26:51;;;;;;;2.13;0.83;;;;;;;;;;5081448;28;20198;-71
2021/01/12 08:29:22;;;;;;;3.47;0.73;;;;;;;;;;5075402;28;20549;-71
2021/01/12 08:32:00;;;;;;;4.17;0.60;;;;;;;;;;5066274;28;20180;-71
2021/01/12 08:34:28;;;;;;;4.27;0.77;;;;;;;;;;5059771;28;20256;-71
2021/01/12 08:36:55;;;;;;;2.50;0.50;;;;;;;;;;5086267;28;20643;-71
2021/01/12 08:39:23;;;;;;;3.23;0.50;;;;;;;;;;5079000;28;20210;-71
2021/01/12 08:41:50;;;;;;;6.23;0.77;;;;;;;;;;5087003;28;20206;-72
2021/01/12 08:44:16;;;;;;;3.67;0.70;;;;;;;;;;5077806;28;20194;-72
2021/01/12 08:46:42;;;;;;;4.13;0.73;;;;;;;;;;5085444;28;20192;-72
2021/01/12 08:49:07;;;;;;;5.73;0.97;;;;;;;;;;5077848;28;20188;-72
2021/01/12 08:51:33;;;;;;;7.00;1.40;;;;;;;;;;5084449;28;20218;-72
2021/01/12 08:53:59;;;;;;;4.50;0.90;;;;;;;;;;5088791;28;20182;-72
2021/01/12 08:56:25;;;;;;;5.70;1.20;;;;;;;;;;5073809;28;20181;-72
2021/01/12 08:59:02;;;;;;;5.70;1.50;;;;;;;;;;5084103;28;20191;-72
2021/01/12 09:01:29;;;;;;;7.10;1.47;;;;;;;;;;5075522;28;20223;-72
2021/01/12 09:04:04;;;;;;;9.20;1.77;;;;;;;;;;5085819;28;20215;-72
2021/01/12 09:06:29;;;;;;;8.17;1.70;;;;;;;;;;5071401;28;20567;-72
2021/01/12 09:09:05;;;;;;;6.30;1.70;;;;;;;;;;5065549;28;20179;-71
2021/01/12 09:11:30;;;;;;;5.37;1.50;;;;;;;;;;5074452;28;20177;-71
2021/01/12 09:14:03;;;;;;;7.67;2.00;;;;;;;;;;5084434;28;20188;-72
2021/01/12 09:16:29;;;;;;;6.70;1.47;;;;;;;;;;5057149;28;20203;-72
2021/01/12 09:18:54;;;;;;;14.23;2.00;;;;;;;;;;5083692;28;20219;-72
2021/01/12 09:21:22;;;;;;;8.00;1.47;;;;;;;;;;5077420;28;20569;-72
2021/01/12 09:23:47;;;;;;;8.63;1.60;;;;;;;;;;5081436;28;20176;-72
2021/01/12 09:26:13;;;;;;;7.20;1.23;;;;;;;;;;5072512;28;20206;-71
2021/01/12 09:28:39;;;;;;;6.50;1.50;;;;;;;;;;5081481;28;20188;-71
2021/01/12 09:31:16;;;;;;;7.57;1.70;;;;;;;;;;5074762;28;20184;-71
2021/01/12 09:33:49;;;;;;;8.67;1.60;;;;;;;;;;5086155;28;20315;-71
2021/01/12 09:36:17;;;;;;;7.17;1.83;;;;;;;;;;5076994;28;20263;-71
2021/01/12 09:38:51;;;;;;;8.80;1.83;;;;;;;;;;4373540;28;10000841;-72
2021/01/12 09:41:21;;;;;;;8.33;2.63;;;;;;;;;;5079619;28;20671;-72
2021/01/12 09:43:46;;;;;;;13.00;2.13;;;;;;;;;;5081893;28;20192;-72
2021/01/12 09:46:12;;;;;;;7.97;2.30;;;;;;;;;;5085439;28;20612;-71
2021/01/12 09:48:38;;;;;;;7.97;2.43;;;;;;;;;;5075772;28;20203;-71
2021/01/12 09:51:05;;;;;;;9.40;2.40;;;;;;;;;;5084269;28;20191;-71
2021/01/12 09:53:30;;;;;;;11.20;3.10;;;;;;;;;;5077167;28;20516;-71
2021/01/12 09:55:58;;;;;;;11.33;3.77;;;;;;;;;;5086457;28;20186;-71
2021/01/12 09:58:25;;;;;;;8.63;3.40;;;;;;;;;;5075468;28;20600;-71
2021/01/12 10:00:50;;;;;;;10.83;3.27;;;;;;;;;;5085245;28;20189;-71
2021/01/12 10:03:15;;;;;;;10.87;4.20;;;;;;;;;;5078428;28;20557;-71
2021/01/12 10:05:41;;;;;;;13.20;4.40;;;;;;;;;;5083247;28;20207;-71
2021/01/12 10:08:08;;;;;;;9.00;3.37;;;;;;;;;;5069003;28;20189;-71
2021/01/12 10:10:34;;;;;;;12.27;4.07;;;;;;;;;;5079777;28;20179;-71
2021/01/12 10:13:00;;;;;;;10.17;3.60;;;;;;;;;;5077617;28;20555;-71
2021/01/12 10:15:26;;;;;;;11.90;4.20;;;;;;;;;;5084889;28;20191;-71
2021/01/12 10:17:51;;;;;;;11.60;3.90;;;;;;;;;;5080037;28;20191;-71
2021/01/12 10:20:17;;;;;;;10.57;3.50;;;;;;;;;;5075002;28;20212;-71
2021/01/12 10:22:42;;;;;;;10.17;3.23;;;;;;;;;;5086015;28;20674;-71
2021/01/12 10:25:08;;;;;;;13.80;3.33;;;;;;;;;;5076750;28;20203;-71
2021/01/12 10:27:36;;;;;;;9.33;3.13;;;;;;;;;;5084255;28;20184;-70
2021/01/12 10:30:03;;;;;;;10.03;3.13;;;;;;;;;;5074301;28;20542;-71
2021/01/12 10:32:28;;;;;;;7.37;3.07;;;;;;;;;;5069928;28;20192;-71
2021/01/12 10:34:53;;;;;;;10.90;2.77;;;;;;;;;;5069071;28;20191;-71
2021/01/12 10:37:19;;;;;;;8.57;2.20;;;;;;;;;;5083217;28;20227;-72
2021/01/12 10:39:45;;;;;;;7.63;2.20;;;;;;;;;;5077490;28;20588;-72
2021/01/12 10:42:11;;;;;;;6.70;1.90;;;;;;;;;;5086459;28;20581;-71
2021/01/12 10:44:36;;;;;;;4.47;1.43;;;;;;;;;;5078974;28;20192;-71
2021/01/12 10:47:01;;;;;;;4.50;1.47;;;;;;;;;;5087242;28;20184;-71
2021/01/12 10:49:27;;;;;;;4.10;0.80;;;;;;;;;;5088937;28;20172;-71
2021/01/12 10:52:03;;;;;;;3.30;0.63;;;;;;;;;;5080985;28;20194;-71
2021/01/12 10:54:29;;;;;;;1.23;0.40;;;;;;;;;;5087005;28;20250;-72
2021/01/12 10:56:55;;;;;;;3.53;0.53;;;;;;;;;;5079944;28;20332;-72
2021/01/12 10:59:20;;;;;;;3.07;0.50;;;;;;;;;;5088281;28;20188;-71
2021/01/12 11:02:01;;;;;;;1.70;0.50;;;;;;;;;;5078919;28;20211;-72
2021/01/12 11:04:27;;;;;;;1.73;0.40;;;;;;;;;;5088406;28;20184;-72
2021/01/12 11:06:54;;;;;;;0.63;0.20;;;;;;;;;;5058832;28;20212;-71
2021/01/12 11:09:20;;;;;;;0.83;0.30;;;;;;;;;;5087430;28;20302;-72
2021/01/12 11:11:49;;;;;;;2.93;0.50;;;;;;;;;;4374433;28;10000786;-71
2021/01/12 11:14:21;;;;;;;2.30;0.43;;;;;;;;;;5085609;28;20180;-72
2021/01/12 11:16:47;;;;;;;2.63;0.30;;;;;;;;;;5073472;28;20188;-72
2021/01/12 11:19:13;;;;;;;4.03;0.57;;;;;;;;;;5086396;28;20678;-72
2021/01/12 11:21:47;;;;;;;2.87;0.30;;;;;;;;;;5074025;28;20576;-73
2021/01/12 11:24:18;;;;;;;3.97;0.30;;;;;;;;;;5083426;28;20492;-72
2021/01/12 11:26:44;;;;;;;5.73;0.93;;;;;;;;;;5071690;28;20647;-73
2021/01/12 11:29:10;;;;;;;1.00;0.40;;;;;;;;;;5077370;28;20188;-71
2021/01/12 11:31:36;;;;;;;4.77;0.63;;;;;;;;;;5081046;28;20180;-71
2021/01/12 11:34:02;;;;;;;2.10;0.47;;;;;;;;;;5063857;28;20200;-71
2021/01/12 11:36:39;;;;;;;4.17;0.60;;;;;;;;;;5079722;28;20657;-71
2021/01/12 11:39:05;;;;;;;6.90;0.80;;;;;;;;;;5075240;28;20247;-71
2021/01/12 11:41:31;;;;;;;12.27;0.60;;;;;;;;;;5083589;28;20226;-71
2021/01/12 11:43:56;;;;;;;5.93;0.50;;;;;;;;;;5074674;28;20192;-71
2021/01/12 11:46:29;;;;;;;6.60;1.13;;;;;;;;;;5084359;28;20601;-72
2021/01/12 11:48:56;;;;;;;4.13;0.60;;;;;;;;;;5073700;28;20184;-73
2021/01/12 11:51:21;;;;;;;4.03;0.40;;;;;;;;;;5086088;28;20184;-71
2021/01/12 11:53:51;;;;;;;7.50;0.87;;;;;;;;;;5075245;28;20200;-72
2021/01/12 11:56:17;;;;;;;12.40;0.90;;;;;;;;;;5085262;28;20180;-72
2021/01/12 11:58:42;;;;;;;8.13;1.33;;;;;;;;;;5075128;28;20199;-72
2021/01/12 12:01:07;;;;;;;8.97;0.83;;;;;;;;;;5086029;28;20211;-71
2021/01/12 12:03:32;;;;;;;6.10;0.87;;;;;;;;;;5077529;28;20899;-72
2021/01/12 12:05:58;;;;;;;10.20;0.83;;;;;;;;;;5077737;28;20293;-72
2021/01/12 12:08:23;;;;;;;5.57;1.00;;;;;;;;;;5086541;28;20226;-71
2021/01/12 12:10:48;;;;;;;5.57;1.00;;;;;;;;;;5058968;28;20187;-71
2021/01/12 12:13:14;;;;;;;9.37;1.53;;;;;;;;;;5085827;28;20722;-71
2021/01/12 12:15:39;;;;;;;8.03;1.13;;;;;;;;;;5073924;28;20189;-71
2021/01/12 12:18:05;;;;;;;5.80;0.83;;;;;;;;;;5085348;28;20199;-72
2021/01/12 12:20:31;;;;;;;9.97;1.00;;;;;;;;;;5078130;28;20221;-71
2021/01/12 12:22:56;;;;;;;6.13;1.13;;;;;;;;;;5064673;28;20225;-71
2021/01/12 12:25:21;;;;;;;10.20;1.10;;;;;;;;;;5078378;28;20532;-71
2021/01/12 12:27:47;;;;;;;6.70;1.03;;;;;;;;;;5085400;28;20188;-71
2021/01/12 12:30:12;;;;;;;6.23;0.80;;;;;;;;;;5060618;28;20189;-71
2021/01/12 12:32:38;;;;;;;5.47;0.80;;;;;;;;;;5069464;28;20182;-71
2021/01/12 12:35:04;;;;;;;5.47;0.70;;;;;;;;;;5069925;28;20236;-71
2021/01/12 12:37:29;;;;;;;9.13;0.90;;;;;;;;;;5086769;28;20228;-71
2021/01/12 12:39:54;;;;;;;9.47;1.23;;;;;;;;;;5090012;28;20192;-71
2021/01/12 12:42:20;;;;;;;5.20;0.83;;;;;;;;;;5077754;28;20275;-71
2021/01/12 12:44:45;;;;;;;9.87;0.93;;;;;;;;;;5087636;28;20184;-71
2021/01/12 12:47:15;;;;;;;16.10;2.77;;;;;;;;;;5077858;28;20184;-71
2021/01/12 12:49:40;;;;;;;13.77;1.17;;;;;;;;;;5087656;28;20225;-72
2021/01/12 12:52:06;;;;;;;5.00;1.00;;;;;;;;;;5060239;28;20279;-71
2021/01/12 12:54:31;;;;;;;7.53;0.90;;;;;;;;;;5088271;28;20233;-71
2021/01/12 12:56:58;;;;;;;4.43;0.77;;;;;;;;;;5078292;28;20215;-71
2021/01/12 12:59:25;;;;;;;13.87;1.00;;;;;;;;;;5088191;28;20234;-71
2021/01/12 13:01:51;;;;;;;6.03;0.80;;;;;;;;;;5073473;28;20237;-71
2021/01/12 13:04:17;;;;;;;10.67;0.87;;;;;;;;;;5064637;28;20195;-71
2021/01/12 13:06:48;;;;;;;7.23;0.80;;;;;;;;;;5075122;28;20199;-71
2021/01/12 13:09:13;;;;;;;6.87;0.80;;;;;;;;;;5085987;28;20247;-71
2021/01/12 13:11:43;;;;;;;9.27;0.93;;;;;;;;;;5075307;28;20267;-71
2021/01/12 13:14:09;;;;;;;6.43;0.60;;;;;;;;;;5084881;28;20192;-71
2021/01/12 13:16:39;;;;;;;8.17;0.90;;;;;;;;;;5084701;28;20180;-71
2021/01/12 13:19:15;;;;;;;8.50;0.87;;;;;;;;;;5076109;28;20202;-71
2021/01/12 13:21:54;;;;;;;16.77;1.40;;;;;;;;;;5083092;28;20223;-71
2021/01/12 13:24:21;;;;;;;7.30;0.70;;;;;;;;;;5074922;28;20194;-71
2021/01/12 13:26:48;;;;;;;8.10;0.73;;;;;;;;;;5082740;28;20267;-71
2021/01/12 13:29:15;;;;;;;6.33;1.20;;;;;;;;;;5074126;28;20188;-71
2021/01/12 13:31:41;;;;;;;7.33;1.13;;;;;;;;;;5082157;28;20190;-71
2021/01/12 13:34:06;;;;;;;8.23;0.90;;;;;;;;;;5075479;28;20180;-71
2021/01/12 13:36:36;;;;;;;6.17;0.90;;;;;;;;;;5086073;28;20184;-71
2021/01/12 13:39:06;;;;;;;7.77;1.20;;;;;;;;;;5076209;28;20625;-71
2021/01/12 13:41:33;;;;;;;8.67;1.27;;;;;;;;;;5084313;28;20204;-71
2021/01/12 13:43:58;;;;;;;8.47;1.20;;;;;;;;;;5072303;28;20230;-71
2021/01/12 13:46:24;;;;;;;8.77;0.77;;;;;;;;;;5084693;28;20176;-71
2021/01/12 13:48:50;;;;;;;10.07;1.10;;;;;;;;;;5074343;28;20215;-70
2021/01/12 13:51:16;;;;;;;10.10;1.00;;;;;;;;;;5085518;28;20560;-70
2021/01/12 13:53:41;;;;;;;9.10;1.97;;;;;;;;;;5079842;28;20266;-70
2021/01/12 13:56:07;;;;;;;8.87;1.10;;;;;;;;;;5079797;28;20275;-70
2021/01/12 13:58:33;;;;;;;6.77;1.17;;;;;;;;;;5084869;28;20210;-70
2021/01/12 14:01:00;;;;;;;12.83;1.23;;;;;;;;;;5079285;28;20675;-70
2021/01/12 14:03:25;;;;;;;7.67;1.00;;;;;;;;;;5087032;28;20271;-69
2021/01/12 14:05:51;;;;;;;4.13;0.63;;;;;;;;;;5074446;28;20282;-70
2021/01/12 14:08:16;;;;;;;6.13;1.10;;;;;;;;;;5079453;28;20211;-71
2021/01/12 14:10:41;;;;;;;13.20;1.00;;;;;;;;;;5073921;28;20180;-71
2021/01/12 14:13:07;;;;;;;6.33;1.10;;;;;;;;;;5085223;28;20735;-71
2021/01/12 14:15:32;;;;;;;7.60;1.40;;;;;;;;;;5058240;28;20181;-71
2021/01/12 14:18:02;;;;;;;12.07;1.13;;;;;;;;;;5082239;28;20245;-71
2021/01/12 14:20:27;;;;;;;12.50;1.20;;;;;;;;;;5076840;28;20612;-71
2021/01/12 14:22:55;;;;;;;6.53;1.20;;;;;;;;;;5083791;28;20224;-71
2021/01/12 14:25:20;;;;;;;10.47;1.50;;;;;;;;;;5062197;28;20569;-71
2021/01/12 14:27:47;;;;;;;10.53;1.33;;;;;;;;;;5059941;28;20271;-71
2021/01/12 14:30:14;;;;;;;11.50;1.33;;;;;;;;;;5087336;28;20187;-71
2021/01/12 14:32:40;;;;;;;8.57;1.17;;;;;;;;;;5072591;28;20176;-71
2021/01/12 14:35:07;;;;;;;9.27;1.30;;;;;;;;;;5084660;28;20685;-72
2021/01/12 14:37:38;;;;;;;14.03;1.73;;;;;;;;;;5071568;28;20223;-71